sensor_id;sensor_type;location;lat;lon;timestamp;P1;durP1;ratioP1;P2;durP2;ratioP2
59587;SDS011;45412;54.472;18.464;2022-11-11T00:01:57;15.30;;;6.20;;
59587;SDS011;45412;54.472;18.464;2022-11-11T00:05:04;14.90;;;6.80;;
59587;SDS011;45412;54.472;18.464;2022-11-11T00:08:11;18.10;;;6.80;;
59587;SDS011;45412;54.472;18.464;2022-11-11T00:11:17;18.20;;;6.70;;
59587;SDS011;45412;54.472;18.464;2022-11-11T00:14:23;17.30;;;5.90;;
59587;SDS011;45412;54.472;18.464;2022-11-11T00:17:30;19.10;;;6.50;;
59587;SDS011;45412;54.472;18.464;2022-11-11T00:20:57;16.00;;;6.50;;
59587;SDS011;45412;54.472;18.464;2022-11-11T00:24:24;14.90;;;6.60;;
59587;SDS011;45412;54.472;18.464;2022-11-11T00:27:51;18.30;;;6.90;;
59587;SDS011;45412;54.472;18.464;2022-11-11T00:31:05;16.60;;;7.00;;
59587;SDS011;45412;54.472;18.464;2022-11-11T00:34:15;15.90;;;6.90;;
59587;SDS011;45412;54.472;18.464;2022-11-11T00:37:22;16.70;;;6.90;;
59587;SDS011;45412;54.472;18.464;2022-11-11T00:40:28;16.20;;;6.70;;
59587;SDS011;45412;54.472;18.464;2022-11-11T00:43:35;15.60;;;5.80;;
59587;SDS011;45412;54.472;18.464;2022-11-11T00:46:41;13.80;;;6.30;;
59587;SDS011;45412;54.472;18.464;2022-11-11T00:50:20;13.80;;;6.40;;
59587;SDS011;45412;54.472;18.464;2022-11-11T00:53:46;13.80;;;6.20;;
59587;SDS011;45412;54.472;18.464;2022-11-11T00:56:53;14.90;;;6.20;;
59587;SDS011;45412;54.472;18.464;2022-11-11T01:00:00;13.60;;;5.80;;
59587;SDS011;45412;54.472;18.464;2022-11-11T01:03:07;14.30;;;5.70;;
59587;SDS011;45412;54.472;18.464;2022-11-11T01:06:13;15.40;;;6.00;;
59587;SDS011;45412;54.472;18.464;2022-11-11T01:09:20;11.90;;;5.80;;
59587;SDS011;45412;54.472;18.464;2022-11-11T01:12:27;16.60;;;5.50;;
59587;SDS011;45412;54.472;18.464;2022-11-11T01:15:33;15.10;;;6.60;;
59587;SDS011;45412;54.472;18.464;2022-11-11T01:18:40;12.00;;;5.40;;
59587;SDS011;45412;54.472;18.464;2022-11-11T01:21:46;14.00;;;6.00;;
59587;SDS011;45412;54.472;18.464;2022-11-11T01:24:53;12.80;;;5.70;;
59587;SDS011;45412;54.472;18.464;2022-11-11T01:28:00;14.10;;;5.00;;
59587;SDS011;45412;54.472;18.464;2022-11-11T01:31:10;12.20;;;5.10;;
59587;SDS011;45412;54.472;18.464;2022-11-11T01:34:18;15.70;;;5.70;;
59587;SDS011;45412;54.472;18.464;2022-11-11T01:37:24;12.20;;;5.20;;
59587;SDS011;45412;54.472;18.464;2022-11-11T01:40:42;13.20;;;5.30;;
59587;SDS011;45412;54.472;18.464;2022-11-11T01:43:49;12.90;;;5.20;;
59587;SDS011;45412;54.472;18.464;2022-11-11T01:47:01;13.50;;;4.80;;
59587;SDS011;45412;54.472;18.464;2022-11-11T01:50:10;16.10;;;5.70;;
59587;SDS011;45412;54.472;18.464;2022-11-11T01:53:16;15.70;;;5.90;;
59587;SDS011;45412;54.472;18.464;2022-11-11T01:56:25;12.90;;;4.90;;
59587;SDS011;45412;54.472;18.464;2022-11-11T01:59:33;13.70;;;7.10;;
59587;SDS011;45412;54.472;18.464;2022-11-11T02:02:57;12.40;;;5.30;;
59587;SDS011;45412;54.472;18.464;2022-11-11T02:06:09;11.90;;;5.40;;
59587;SDS011;45412;54.472;18.464;2022-11-11T02:09:17;13.10;;;7.40;;
59587;SDS011;45412;54.472;18.464;2022-11-11T02:12:26;15.70;;;5.20;;
59587;SDS011;45412;54.472;18.464;2022-11-11T02:15:52;13.60;;;5.50;;
59587;SDS011;45412;54.472;18.464;2022-11-11T02:19:00;14.00;;;5.50;;
59587;SDS011;45412;54.472;18.464;2022-11-11T02:22:08;15.60;;;5.20;;
59587;SDS011;45412;54.472;18.464;2022-11-11T02:25:23;12.40;;;4.80;;
59587;SDS011;45412;54.472;18.464;2022-11-11T02:28:33;13.70;;;4.50;;
59587;SDS011;45412;54.472;18.464;2022-11-11T02:31:41;14.10;;;4.60;;
59587;SDS011;45412;54.472;18.464;2022-11-11T02:34:48;13.30;;;5.00;;
59587;SDS011;45412;54.472;18.464;2022-11-11T02:37:55;14.00;;;5.30;;
59587;SDS011;45412;54.472;18.464;2022-11-11T02:41:02;13.60;;;5.20;;
59587;SDS011;45412;54.472;18.464;2022-11-11T02:44:27;15.00;;;5.10;;
59587;SDS011;45412;54.472;18.464;2022-11-11T02:47:34;13.30;;;5.00;;
59587;SDS011;45412;54.472;18.464;2022-11-11T02:50:40;14.30;;;4.70;;
59587;SDS011;45412;54.472;18.464;2022-11-11T02:53:47;11.70;;;5.10;;
59587;SDS011;45412;54.472;18.464;2022-11-11T02:56:54;11.60;;;5.20;;
59587;SDS011;45412;54.472;18.464;2022-11-11T03:00:13;13.50;;;5.40;;
59587;SDS011;45412;54.472;18.464;2022-11-11T03:03:20;13.60;;;4.90;;
59587;SDS011;45412;54.472;18.464;2022-11-11T03:06:28;14.20;;;5.50;;
59587;SDS011;45412;54.472;18.464;2022-11-11T03:09:34;12.10;;;4.60;;
59587;SDS011;45412;54.472;18.464;2022-11-11T03:12:41;11.20;;;4.50;;
59587;SDS011;45412;54.472;18.464;2022-11-11T03:15:48;12.30;;;5.00;;
59587;SDS011;45412;54.472;18.464;2022-11-11T03:18:55;11.90;;;4.70;;
59587;SDS011;45412;54.472;18.464;2022-11-11T03:22:02;12.20;;;5.00;;
59587;SDS011;45412;54.472;18.464;2022-11-11T03:25:29;11.80;;;4.40;;
59587;SDS011;45412;54.472;18.464;2022-11-11T03:28:45;12.30;;;4.90;;
59587;SDS011;45412;54.472;18.464;2022-11-11T03:31:52;11.40;;;4.70;;
59587;SDS011;45412;54.472;18.464;2022-11-11T03:34:59;13.40;;;4.10;;
59587;SDS011;45412;54.472;18.464;2022-11-11T03:38:07;13.20;;;4.80;;
59587;SDS011;45412;54.472;18.464;2022-11-11T03:41:28;11.10;;;4.50;;
59587;SDS011;45412;54.472;18.464;2022-11-11T03:44:35;9.10;;;4.20;;
59587;SDS011;45412;54.472;18.464;2022-11-11T03:47:42;12.80;;;4.90;;
59587;SDS011;45412;54.472;18.464;2022-11-11T03:50:49;13.60;;;4.50;;
59587;SDS011;45412;54.472;18.464;2022-11-11T03:53:56;10.40;;;4.00;;
59587;SDS011;45412;54.472;18.464;2022-11-11T03:57:02;14.30;;;5.20;;
59587;SDS011;45412;54.472;18.464;2022-11-11T04:00:28;13.60;;;5.00;;
59587;SDS011;45412;54.472;18.464;2022-11-11T04:03:34;14.10;;;4.60;;
59587;SDS011;45412;54.472;18.464;2022-11-11T04:06:59;14.40;;;4.60;;
59587;SDS011;45412;54.472;18.464;2022-11-11T04:10:24;11.40;;;4.40;;
59587;SDS011;45412;54.472;18.464;2022-11-11T04:13:32;14.60;;;4.60;;
59587;SDS011;45412;54.472;18.464;2022-11-11T04:16:57;11.10;;;4.50;;
59587;SDS011;45412;54.472;18.464;2022-11-11T04:20:05;15.40;;;5.00;;
59587;SDS011;45412;54.472;18.464;2022-11-11T04:23:31;12.30;;;4.60;;
59587;SDS011;45412;54.472;18.464;2022-11-11T04:26:37;13.40;;;4.30;;
59587;SDS011;45412;54.472;18.464;2022-11-11T04:29:44;8.50;;;3.90;;
59587;SDS011;45412;54.472;18.464;2022-11-11T04:32:54;14.20;;;4.40;;
59587;SDS011;45412;54.472;18.464;2022-11-11T04:36:01;13.50;;;4.60;;
59587;SDS011;45412;54.472;18.464;2022-11-11T04:39:08;11.60;;;4.20;;
59587;SDS011;45412;54.472;18.464;2022-11-11T04:42:32;13.60;;;4.50;;
59587;SDS011;45412;54.472;18.464;2022-11-11T04:45:40;13.00;;;4.30;;
59587;SDS011;45412;54.472;18.464;2022-11-11T04:48:46;14.70;;;4.00;;
59587;SDS011;45412;54.472;18.464;2022-11-11T04:51:52;13.50;;;4.80;;
59587;SDS011;45412;54.472;18.464;2022-11-11T04:55:34;12.80;;;4.20;;
59587;SDS011;45412;54.472;18.464;2022-11-11T04:58:59;15.50;;;4.20;;
59587;SDS011;45412;54.472;18.464;2022-11-11T05:02:25;13.60;;;3.80;;
59587;SDS011;45412;54.472;18.464;2022-11-11T05:05:52;13.50;;;4.00;;
59587;SDS011;45412;54.472;18.464;2022-11-11T05:09:18;11.20;;;3.90;;
59587;SDS011;45412;54.472;18.464;2022-11-11T05:12:24;8.30;;;3.40;;
59587;SDS011;45412;54.472;18.464;2022-11-11T05:15:31;14.90;;;4.00;;
59587;SDS011;45412;54.472;18.464;2022-11-11T05:18:56;9.80;;;4.70;;
59587;SDS011;45412;54.472;18.464;2022-11-11T05:25:29;11.40;;;3.90;;
59587;SDS011;45412;54.472;18.464;2022-11-11T05:28:39;11.70;;;3.90;;
59587;SDS011;45412;54.472;18.464;2022-11-11T05:31:45;12.30;;;3.40;;
59587;SDS011;45412;54.472;18.464;2022-11-11T05:34:56;15.20;;;3.90;;
59587;SDS011;45412;54.472;18.464;2022-11-11T05:38:03;11.20;;;3.90;;
59587;SDS011;45412;54.472;18.464;2022-11-11T05:41:28;10.60;;;3.20;;
59587;SDS011;45412;54.472;18.464;2022-11-11T05:44:35;14.90;;;4.40;;
59587;SDS011;45412;54.472;18.464;2022-11-11T05:47:42;13.40;;;4.50;;
59587;SDS011;45412;54.472;18.464;2022-11-11T05:50:48;12.80;;;3.70;;
59587;SDS011;45412;54.472;18.464;2022-11-11T05:53:56;10.10;;;3.10;;
59587;SDS011;45412;54.472;18.464;2022-11-11T05:57:02;10.00;;;3.40;;
59587;SDS011;45412;54.472;18.464;2022-11-11T06:00:10;12.10;;;3.50;;
59587;SDS011;45412;54.472;18.464;2022-11-11T06:03:17;9.10;;;3.10;;
59587;SDS011;45412;54.472;18.464;2022-11-11T06:06:23;10.20;;;3.20;;
59587;SDS011;45412;54.472;18.464;2022-11-11T06:09:30;11.30;;;3.40;;
59587;SDS011;45412;54.472;18.464;2022-11-11T06:12:41;10.40;;;3.30;;
59587;SDS011;45412;54.472;18.464;2022-11-11T06:16:07;11.90;;;3.40;;
59587;SDS011;45412;54.472;18.464;2022-11-11T06:19:14;11.80;;;3.80;;
59587;SDS011;45412;54.472;18.464;2022-11-11T06:22:21;12.30;;;3.70;;
59587;SDS011;45412;54.472;18.464;2022-11-11T06:25:48;12.70;;;5.80;;
59587;SDS011;45412;54.472;18.464;2022-11-11T06:29:13;9.20;;;3.10;;
59587;SDS011;45412;54.472;18.464;2022-11-11T06:32:19;12.70;;;3.50;;
59587;SDS011;45412;54.472;18.464;2022-11-11T06:35:26;12.20;;;3.40;;
59587;SDS011;45412;54.472;18.464;2022-11-11T06:38:33;12.30;;;3.00;;
59587;SDS011;45412;54.472;18.464;2022-11-11T06:41:40;10.60;;;3.10;;
59587;SDS011;45412;54.472;18.464;2022-11-11T06:44:47;12.70;;;2.90;;
59587;SDS011;45412;54.472;18.464;2022-11-11T06:47:54;12.70;;;3.90;;
59587;SDS011;45412;54.472;18.464;2022-11-11T06:51:02;14.00;;;3.10;;
59587;SDS011;45412;54.472;18.464;2022-11-11T06:54:11;12.60;;;3.40;;
59587;SDS011;45412;54.472;18.464;2022-11-11T06:57:18;8.80;;;3.00;;
59587;SDS011;45412;54.472;18.464;2022-11-11T07:00:27;11.80;;;3.70;;
59587;SDS011;45412;54.472;18.464;2022-11-11T07:03:34;11.50;;;3.70;;
59587;SDS011;45412;54.472;18.464;2022-11-11T07:06:41;13.00;;;3.50;;
59587;SDS011;45412;54.472;18.464;2022-11-11T07:09:49;12.80;;;3.10;;
59587;SDS011;45412;54.472;18.464;2022-11-11T07:12:56;13.20;;;4.10;;
59587;SDS011;45412;54.472;18.464;2022-11-11T07:16:03;11.10;;;3.40;;
59587;SDS011;45412;54.472;18.464;2022-11-11T07:19:10;13.10;;;4.10;;
59587;SDS011;45412;54.472;18.464;2022-11-11T07:22:17;11.60;;;3.10;;
59587;SDS011;45412;54.472;18.464;2022-11-11T07:25:24;9.80;;;3.10;;
59587;SDS011;45412;54.472;18.464;2022-11-11T07:28:31;10.10;;;3.70;;
59587;SDS011;45412;54.472;18.464;2022-11-11T07:31:38;12.20;;;3.20;;
59587;SDS011;45412;54.472;18.464;2022-11-11T07:34:45;11.90;;;3.10;;
59587;SDS011;45412;54.472;18.464;2022-11-11T07:37:52;13.70;;;3.70;;
59587;SDS011;45412;54.472;18.464;2022-11-11T07:41:04;12.20;;;3.70;;
59587;SDS011;45412;54.472;18.464;2022-11-11T07:44:16;10.90;;;3.70;;
59587;SDS011;45412;54.472;18.464;2022-11-11T07:47:22;15.10;;;3.50;;
59587;SDS011;45412;54.472;18.464;2022-11-11T07:50:29;11.70;;;3.60;;
59587;SDS011;45412;54.472;18.464;2022-11-11T07:53:36;14.20;;;3.80;;
59587;SDS011;45412;54.472;18.464;2022-11-11T07:56:47;14.10;;;3.50;;
59587;SDS011;45412;54.472;18.464;2022-11-11T07:59:54;12.40;;;3.60;;
59587;SDS011;45412;54.472;18.464;2022-11-11T08:03:02;13.30;;;3.20;;
59587;SDS011;45412;54.472;18.464;2022-11-11T08:06:18;10.50;;;3.20;;
59587;SDS011;45412;54.472;18.464;2022-11-11T08:09:27;12.80;;;3.40;;
59587;SDS011;45412;54.472;18.464;2022-11-11T08:12:34;12.50;;;3.50;;
59587;SDS011;45412;54.472;18.464;2022-11-11T08:15:59;10.90;;;3.30;;
59587;SDS011;45412;54.472;18.464;2022-11-11T08:19:10;12.40;;;3.30;;
59587;SDS011;45412;54.472;18.464;2022-11-11T08:22:17;11.80;;;3.70;;
59587;SDS011;45412;54.472;18.464;2022-11-11T08:25:23;13.40;;;4.10;;
59587;SDS011;45412;54.472;18.464;2022-11-11T08:28:31;12.70;;;3.70;;
59587;SDS011;45412;54.472;18.464;2022-11-11T08:31:39;12.40;;;4.20;;
59587;SDS011;45412;54.472;18.464;2022-11-11T08:34:46;11.00;;;3.90;;
59587;SDS011;45412;54.472;18.464;2022-11-11T08:37:52;12.60;;;3.90;;
59587;SDS011;45412;54.472;18.464;2022-11-11T08:41:04;10.50;;;3.70;;
59587;SDS011;45412;54.472;18.464;2022-11-11T08:44:12;12.00;;;4.00;;
59587;SDS011;45412;54.472;18.464;2022-11-11T08:47:20;10.90;;;4.30;;
59587;SDS011;45412;54.472;18.464;2022-11-11T08:50:28;11.80;;;4.30;;
59587;SDS011;45412;54.472;18.464;2022-11-11T08:53:35;12.20;;;4.50;;
59587;SDS011;45412;54.472;18.464;2022-11-11T08:56:44;16.40;;;5.30;;
59587;SDS011;45412;54.472;18.464;2022-11-11T08:59:51;13.10;;;4.60;;
59587;SDS011;45412;54.472;18.464;2022-11-11T09:03:03;15.10;;;4.90;;
59587;SDS011;45412;54.472;18.464;2022-11-11T09:06:11;13.20;;;4.80;;
59587;SDS011;45412;54.472;18.464;2022-11-11T09:09:20;14.20;;;5.00;;
59587;SDS011;45412;54.472;18.464;2022-11-11T09:12:27;11.40;;;5.10;;
59587;SDS011;45412;54.472;18.464;2022-11-11T09:15:33;15.40;;;4.60;;
59587;SDS011;45412;54.472;18.464;2022-11-11T09:18:40;13.70;;;4.90;;
59587;SDS011;45412;54.472;18.464;2022-11-11T09:21:47;10.70;;;4.80;;
59587;SDS011;45412;54.472;18.464;2022-11-11T09:24:55;12.10;;;4.60;;
59587;SDS011;45412;54.472;18.464;2022-11-11T09:28:02;14.60;;;5.70;;
59587;SDS011;45412;54.472;18.464;2022-11-11T09:31:08;12.90;;;5.30;;
59587;SDS011;45412;54.472;18.464;2022-11-11T09:34:37;14.70;;;5.80;;
59587;SDS011;45412;54.472;18.464;2022-11-11T09:37:56;13.60;;;5.50;;
59587;SDS011;45412;54.472;18.464;2022-11-11T09:41:19;16.00;;;6.00;;
59587;SDS011;45412;54.472;18.464;2022-11-11T09:44:48;13.20;;;4.90;;
59587;SDS011;45412;54.472;18.464;2022-11-11T09:51:46;11.10;;;5.40;;
59587;SDS011;45412;54.472;18.464;2022-11-11T09:58:20;18.00;;;5.80;;
59587;SDS011;45412;54.472;18.464;2022-11-11T10:02:00;17.00;;;6.80;;
59587;SDS011;45412;54.472;18.464;2022-11-11T10:05:14;11.60;;;6.20;;
59587;SDS011;45412;54.472;18.464;2022-11-11T10:08:30;14.70;;;6.00;;
59587;SDS011;45412;54.472;18.464;2022-11-11T10:11:47;16.80;;;6.30;;
59587;SDS011;45412;54.472;18.464;2022-11-11T10:14:57;12.70;;;5.70;;
59587;SDS011;45412;54.472;18.464;2022-11-11T10:21:53;15.40;;;5.90;;
59587;SDS011;45412;54.472;18.464;2022-11-11T10:25:25;14.40;;;5.80;;
59587;SDS011;45412;54.472;18.464;2022-11-11T10:28:35;15.90;;;6.50;;
59587;SDS011;45412;54.472;18.464;2022-11-11T10:31:58;13.80;;;5.80;;
59587;SDS011;45412;54.472;18.464;2022-11-11T10:35:16;11.90;;;4.90;;
59587;SDS011;45412;54.472;18.464;2022-11-11T10:42:03;14.20;;;4.40;;
59587;SDS011;45412;54.472;18.464;2022-11-11T10:45:26;13.00;;;4.50;;
59587;SDS011;45412;54.472;18.464;2022-11-11T10:51:52;9.90;;;4.20;;
59587;SDS011;45412;54.472;18.464;2022-11-11T10:58:38;13.60;;;4.70;;
59587;SDS011;45412;54.472;18.464;2022-11-11T11:05:10;13.10;;;4.30;;
59587;SDS011;45412;54.472;18.464;2022-11-11T11:08:29;10.50;;;3.70;;
59587;SDS011;45412;54.472;18.464;2022-11-11T11:15:16;12.20;;;4.10;;
59587;SDS011;45412;54.472;18.464;2022-11-11T11:18:25;11.30;;;4.30;;
59587;SDS011;45412;54.472;18.464;2022-11-11T11:21:52;10.00;;;4.10;;
59587;SDS011;45412;54.472;18.464;2022-11-11T11:25:11;11.80;;;3.90;;
59587;SDS011;45412;54.472;18.464;2022-11-11T11:28:18;13.60;;;5.00;;
59587;SDS011;45412;54.472;18.464;2022-11-11T11:31:35;15.60;;;4.80;;
59587;SDS011;45412;54.472;18.464;2022-11-11T11:34:49;15.70;;;6.20;;
59587;SDS011;45412;54.472;18.464;2022-11-11T11:37:57;14.50;;;5.50;;
59587;SDS011;45412;54.472;18.464;2022-11-11T11:41:04;14.20;;;4.70;;
59587;SDS011;45412;54.472;18.464;2022-11-11T11:44:40;13.40;;;5.10;;
59587;SDS011;45412;54.472;18.464;2022-11-11T11:48:10;16.00;;;4.30;;
59587;SDS011;45412;54.472;18.464;2022-11-11T11:55:30;14.30;;;4.50;;
59587;SDS011;45412;54.472;18.464;2022-11-11T11:58:56;14.50;;;5.10;;
59587;SDS011;45412;54.472;18.464;2022-11-11T12:06:42;13.40;;;4.90;;
59587;SDS011;45412;54.472;18.464;2022-11-11T12:17:16;12.20;;;4.20;;
59587;SDS011;45412;54.472;18.464;2022-11-11T12:20:42;13.30;;;4.70;;
59587;SDS011;45412;54.472;18.464;2022-11-11T12:31:24;14.00;;;5.60;;
59587;SDS011;45412;54.472;18.464;2022-11-11T12:35:05;13.20;;;4.60;;
59587;SDS011;45412;54.472;18.464;2022-11-11T12:50:18;12.80;;;5.00;;
59587;SDS011;45412;54.472;18.464;2022-11-11T12:53:42;12.10;;;4.50;;
59587;SDS011;45412;54.472;18.464;2022-11-11T13:00:16;10.40;;;4.60;;
59587;SDS011;45412;54.472;18.464;2022-11-11T13:03:34;11.00;;;4.60;;
59587;SDS011;45412;54.472;18.464;2022-11-11T13:07:17;14.10;;;4.70;;
59587;SDS011;45412;54.472;18.464;2022-11-11T13:11:02;12.60;;;4.70;;
59587;SDS011;45412;54.472;18.464;2022-11-11T13:18:11;10.40;;;4.80;;
59587;SDS011;45412;54.472;18.464;2022-11-11T13:21:49;12.60;;;4.90;;
59587;SDS011;45412;54.472;18.464;2022-11-11T13:25:02;13.70;;;5.10;;
59587;SDS011;45412;54.472;18.464;2022-11-11T13:28:23;12.60;;;5.20;;
59587;SDS011;45412;54.472;18.464;2022-11-11T13:31:37;12.60;;;4.50;;
59587;SDS011;45412;54.472;18.464;2022-11-11T13:34:46;12.00;;;5.00;;
59587;SDS011;45412;54.472;18.464;2022-11-11T13:37:54;18.10;;;4.80;;
59587;SDS011;45412;54.472;18.464;2022-11-11T13:41:10;13.50;;;5.00;;
59587;SDS011;45412;54.472;18.464;2022-11-11T13:47:56;12.10;;;5.20;;
59587;SDS011;45412;54.472;18.464;2022-11-11T13:54:32;14.20;;;6.90;;
59587;SDS011;45412;54.472;18.464;2022-11-11T13:57:50;15.70;;;6.60;;
59587;SDS011;45412;54.472;18.464;2022-11-11T14:01:00;16.30;;;6.40;;
59587;SDS011;45412;54.472;18.464;2022-11-11T14:04:10;18.70;;;6.40;;
59587;SDS011;45412;54.472;18.464;2022-11-11T14:10:58;12.50;;;6.00;;
59587;SDS011;45412;54.472;18.464;2022-11-11T14:17:42;14.80;;;5.20;;
59587;SDS011;45412;54.472;18.464;2022-11-11T14:20:53;12.20;;;4.50;;
59587;SDS011;45412;54.472;18.464;2022-11-11T14:24:02;14.10;;;5.40;;
59587;SDS011;45412;54.472;18.464;2022-11-11T14:30:31;13.70;;;4.90;;
59587;SDS011;45412;54.472;18.464;2022-11-11T14:40:36;13.00;;;4.60;;
59587;SDS011;45412;54.472;18.464;2022-11-11T14:43:42;17.40;;;4.90;;
59587;SDS011;45412;54.472;18.464;2022-11-11T14:53:37;17.00;;;6.20;;
59587;SDS011;45412;54.472;18.464;2022-11-11T14:56:53;15.20;;;6.70;;
59587;SDS011;45412;54.472;18.464;2022-11-11T15:00:17;17.30;;;6.00;;
59587;SDS011;45412;54.472;18.464;2022-11-11T15:03:36;15.30;;;6.20;;
59587;SDS011;45412;54.472;18.464;2022-11-11T15:07:24;18.00;;;6.60;;
59587;SDS011;45412;54.472;18.464;2022-11-11T15:18:08;18.00;;;6.20;;
59587;SDS011;45412;54.472;18.464;2022-11-11T15:21:33;14.20;;;5.80;;
59587;SDS011;45412;54.472;18.464;2022-11-11T15:24:54;15.30;;;6.00;;
59587;SDS011;45412;54.472;18.464;2022-11-11T15:28:52;12.60;;;5.80;;
59587;SDS011;45412;54.472;18.464;2022-11-11T15:39:20;14.10;;;5.10;;
59587;SDS011;45412;54.472;18.464;2022-11-11T15:42:39;14.60;;;5.60;;
59587;SDS011;45412;54.472;18.464;2022-11-11T15:45:57;18.00;;;6.40;;
59587;SDS011;45412;54.472;18.464;2022-11-11T15:49:11;16.30;;;5.10;;
59587;SDS011;45412;54.472;18.464;2022-11-11T15:55:34;17.20;;;4.80;;
59587;SDS011;45412;54.472;18.464;2022-11-11T15:58:43;14.20;;;4.50;;
59587;SDS011;45412;54.472;18.464;2022-11-11T16:01:50;12.80;;;4.50;;
59587;SDS011;45412;54.472;18.464;2022-11-11T16:05:09;13.80;;;5.50;;
59587;SDS011;45412;54.472;18.464;2022-11-11T16:08:22;16.20;;;5.60;;
59587;SDS011;45412;54.472;18.464;2022-11-11T16:11:29;15.10;;;5.10;;
59587;SDS011;45412;54.472;18.464;2022-11-11T16:14:39;13.10;;;4.30;;
59587;SDS011;45412;54.472;18.464;2022-11-11T16:17:49;12.60;;;4.90;;
59587;SDS011;45412;54.472;18.464;2022-11-11T16:21:11;14.70;;;4.60;;
59587;SDS011;45412;54.472;18.464;2022-11-11T16:24:27;12.40;;;5.10;;
59587;SDS011;45412;54.472;18.464;2022-11-11T16:27:47;14.30;;;5.00;;
59587;SDS011;45412;54.472;18.464;2022-11-11T16:30:56;12.40;;;4.40;;
59587;SDS011;45412;54.472;18.464;2022-11-11T16:34:22;12.60;;;5.10;;
59587;SDS011;45412;54.472;18.464;2022-11-11T16:37:49;11.50;;;5.40;;
59587;SDS011;45412;54.472;18.464;2022-11-11T16:40:58;14.50;;;5.40;;
59587;SDS011;45412;54.472;18.464;2022-11-11T16:45:08;13.50;;;4.80;;
59587;SDS011;45412;54.472;18.464;2022-11-11T16:47:54;13.30;;;5.70;;
59587;SDS011;45412;54.472;18.464;2022-11-11T16:51:40;13.50;;;5.00;;
59587;SDS011;45412;54.472;18.464;2022-11-11T16:55:18;16.10;;;5.90;;
59587;SDS011;45412;54.472;18.464;2022-11-11T16:58:37;12.90;;;5.60;;
59587;SDS011;45412;54.472;18.464;2022-11-11T17:01:49;14.60;;;6.70;;
59587;SDS011;45412;54.472;18.464;2022-11-11T17:04:57;16.40;;;5.80;;
59587;SDS011;45412;54.472;18.464;2022-11-11T17:11:44;16.50;;;5.70;;
59587;SDS011;45412;54.472;18.464;2022-11-11T17:14:53;11.60;;;5.10;;
59587;SDS011;45412;54.472;18.464;2022-11-11T17:18:01;16.60;;;4.90;;
59587;SDS011;45412;54.472;18.464;2022-11-11T17:21:07;17.50;;;6.70;;
59587;SDS011;45412;54.472;18.464;2022-11-11T17:24:14;15.60;;;5.10;;
59587;SDS011;45412;54.472;18.464;2022-11-11T17:27:20;14.10;;;5.30;;
59587;SDS011;45412;54.472;18.464;2022-11-11T17:30:27;13.10;;;5.20;;
59587;SDS011;45412;54.472;18.464;2022-11-11T17:33:34;14.70;;;6.00;;
59587;SDS011;45412;54.472;18.464;2022-11-11T17:36:40;14.20;;;5.60;;
59587;SDS011;45412;54.472;18.464;2022-11-11T17:39:49;16.70;;;5.60;;
59587;SDS011;45412;54.472;18.464;2022-11-11T17:42:56;12.30;;;5.40;;
59587;SDS011;45412;54.472;18.464;2022-11-11T17:46:03;12.60;;;5.10;;
59587;SDS011;45412;54.472;18.464;2022-11-11T17:49:10;14.10;;;5.20;;
59587;SDS011;45412;54.472;18.464;2022-11-11T17:52:22;11.70;;;5.00;;
59587;SDS011;45412;54.472;18.464;2022-11-11T17:55:30;15.40;;;5.40;;
59587;SDS011;45412;54.472;18.464;2022-11-11T17:58:40;13.50;;;4.90;;
59587;SDS011;45412;54.472;18.464;2022-11-11T18:01:47;10.50;;;4.60;;
59587;SDS011;45412;54.472;18.464;2022-11-11T18:04:53;12.40;;;4.90;;
59587;SDS011;45412;54.472;18.464;2022-11-11T18:08:04;11.90;;;4.90;;
59587;SDS011;45412;54.472;18.464;2022-11-11T18:11:11;12.70;;;5.60;;
59587;SDS011;45412;54.472;18.464;2022-11-11T18:14:17;11.60;;;4.20;;
59587;SDS011;45412;54.472;18.464;2022-11-11T18:17:26;11.10;;;5.20;;
59587;SDS011;45412;54.472;18.464;2022-11-11T18:20:33;9.40;;;4.20;;
59587;SDS011;45412;54.472;18.464;2022-11-11T18:23:40;11.70;;;5.20;;
59587;SDS011;45412;54.472;18.464;2022-11-11T18:26:46;11.30;;;4.40;;
59587;SDS011;45412;54.472;18.464;2022-11-11T18:29:53;10.60;;;5.10;;
59587;SDS011;45412;54.472;18.464;2022-11-11T18:32:59;10.90;;;4.20;;
59587;SDS011;45412;54.472;18.464;2022-11-11T18:36:08;10.40;;;4.30;;
59587;SDS011;45412;54.472;18.464;2022-11-11T18:39:20;11.70;;;4.30;;
59587;SDS011;45412;54.472;18.464;2022-11-11T18:42:27;13.00;;;5.30;;
59587;SDS011;45412;54.472;18.464;2022-11-11T18:45:35;13.50;;;5.10;;
59587;SDS011;45412;54.472;18.464;2022-11-11T18:48:42;13.00;;;5.60;;
59587;SDS011;45412;54.472;18.464;2022-11-11T18:51:49;11.30;;;4.80;;
59587;SDS011;45412;54.472;18.464;2022-11-11T18:54:57;10.80;;;5.00;;
59587;SDS011;45412;54.472;18.464;2022-11-11T18:58:07;9.70;;;4.40;;
59587;SDS011;45412;54.472;18.464;2022-11-11T19:01:31;11.70;;;5.20;;
59587;SDS011;45412;54.472;18.464;2022-11-11T19:04:42;12.10;;;5.40;;
59587;SDS011;45412;54.472;18.464;2022-11-11T19:07:55;12.20;;;5.30;;
59587;SDS011;45412;54.472;18.464;2022-11-11T19:11:03;13.00;;;4.90;;
59587;SDS011;45412;54.472;18.464;2022-11-11T19:14:12;12.00;;;4.80;;
59587;SDS011;45412;54.472;18.464;2022-11-11T19:17:28;16.40;;;6.60;;
59587;SDS011;45412;54.472;18.464;2022-11-11T19:20:36;13.70;;;5.70;;
59587;SDS011;45412;54.472;18.464;2022-11-11T19:23:44;11.50;;;5.10;;
59587;SDS011;45412;54.472;18.464;2022-11-11T19:26:52;12.20;;;5.50;;
59587;SDS011;45412;54.472;18.464;2022-11-11T19:29:58;14.90;;;5.30;;
59587;SDS011;45412;54.472;18.464;2022-11-11T19:33:06;12.50;;;4.90;;
59587;SDS011;45412;54.472;18.464;2022-11-11T19:36:14;11.30;;;4.80;;
59587;SDS011;45412;54.472;18.464;2022-11-11T19:39:24;10.80;;;5.40;;
59587;SDS011;45412;54.472;18.464;2022-11-11T19:42:30;11.40;;;4.80;;
59587;SDS011;45412;54.472;18.464;2022-11-11T19:45:37;13.70;;;6.10;;
59587;SDS011;45412;54.472;18.464;2022-11-11T19:48:44;12.90;;;6.00;;
59587;SDS011;45412;54.472;18.464;2022-11-11T19:51:51;13.30;;;6.00;;
59587;SDS011;45412;54.472;18.464;2022-11-11T19:54:58;12.80;;;5.40;;
59587;SDS011;45412;54.472;18.464;2022-11-11T19:58:08;11.30;;;4.40;;
59587;SDS011;45412;54.472;18.464;2022-11-11T20:01:22;14.40;;;5.30;;
59587;SDS011;45412;54.472;18.464;2022-11-11T20:04:31;14.20;;;5.30;;
59587;SDS011;45412;54.472;18.464;2022-11-11T20:07:38;11.50;;;5.10;;
59587;SDS011;45412;54.472;18.464;2022-11-11T20:10:46;13.60;;;5.30;;
59587;SDS011;45412;54.472;18.464;2022-11-11T20:13:53;11.40;;;4.70;;
59587;SDS011;45412;54.472;18.464;2022-11-11T20:17:01;11.60;;;5.20;;
59587;SDS011;45412;54.472;18.464;2022-11-11T20:20:08;13.00;;;4.60;;
59587;SDS011;45412;54.472;18.464;2022-11-11T20:23:15;10.50;;;4.70;;
59587;SDS011;45412;54.472;18.464;2022-11-11T20:26:22;12.30;;;5.10;;
59587;SDS011;45412;54.472;18.464;2022-11-11T20:29:29;14.00;;;4.90;;
59587;SDS011;45412;54.472;18.464;2022-11-11T20:32:39;12.50;;;4.60;;
59587;SDS011;45412;54.472;18.464;2022-11-11T20:35:46;11.40;;;4.60;;
59587;SDS011;45412;54.472;18.464;2022-11-11T20:38:53;11.00;;;4.40;;
59587;SDS011;45412;54.472;18.464;2022-11-11T20:42:03;15.50;;;4.80;;
59587;SDS011;45412;54.472;18.464;2022-11-11T20:45:10;10.40;;;4.70;;
59587;SDS011;45412;54.472;18.464;2022-11-11T20:48:19;13.00;;;5.00;;
59587;SDS011;45412;54.472;18.464;2022-11-11T20:51:27;9.50;;;4.90;;